Time;durP1;ratioP1;P1;durP2;ratioP2;P2;SDS_P1;SDS_P2;PMS_P1;PMS_P2;Temp;Humidity;BMP_temperature;BMP_pressure;BME280_temperature;BME280_humidity;BME280_pressure;Samples;Min_cycle;Max_cycle;Signal;HPM_P1;HPM_P2
2022/12/01 00:00:54;;;;;;;19.50;12.03;;;;;;;;;;5048000;28;20059;-87
2022/12/01 00:03:19;;;;;;;18.77;11.60;;;;;;;;;;5048447;28;20037;-87
2022/12/01 00:05:45;;;;;;;17.95;11.85;;;;;;;;;;5051027;28;20033;-87
2022/12/01 00:08:10;;;;;;;20.93;11.77;;;;;;;;;;5049451;28;20032;-87
2022/12/01 00:10:35;;;;;;;18.67;12.15;;;;;;;;;;5050016;28;20033;-89
2022/12/01 00:13:01;;;;;;;18.90;11.07;;;;;;;;;;5050037;28;20753;-87
2022/12/01 00:15:33;;;;;;;18.63;11.30;;;;;;;;;;5051769;28;20065;-86
2022/12/01 00:17:58;;;;;;;18.50;11.18;;;;;;;;;;5055233;28;20433;-87
2022/12/01 00:20:23;;;;;;;17.80;10.60;;;;;;;;;;5054302;28;20059;-88
2022/12/01 00:22:49;;;;;;;19.20;11.20;;;;;;;;;;5054545;28;20155;-86
2022/12/01 00:25:16;;;;;;;17.50;11.17;;;;;;;;;;5054127;28;20272;-88
2022/12/01 00:27:41;;;;;;;19.15;11.75;;;;;;;;;;5054200;28;20337;-88
2022/12/01 00:30:08;;;;;;;19.15;11.90;;;;;;;;;;5045060;28;20033;-87
2022/12/01 00:32:33;;;;;;;18.40;11.85;;;;;;;;;;5041164;28;20044;-86
2022/12/01 00:34:58;;;;;;;19.30;11.63;;;;;;;;;;5038736;28;20485;-86
2022/12/01 00:37:23;;;;;;;20.93;12.83;;;;;;;;;;5046810;28;20294;-88
2022/12/01 00:39:49;;;;;;;23.00;12.80;;;;;;;;;;5051818;28;20111;-87
2022/12/01 00:42:14;;;;;;;20.93;12.13;;;;;;;;;;5053246;28;20234;-89
2022/12/01 00:44:39;;;;;;;17.03;12.13;;;;;;;;;;5051451;28;20413;-87
2022/12/01 00:47:04;;;;;;;17.60;10.90;;;;;;;;;;5053759;28;20141;-88
2022/12/01 00:49:30;;;;;;;19.67;12.10;;;;;;;;;;5043457;28;20387;-86
2022/12/01 00:51:56;;;;;;;22.70;13.52;;;;;;;;;;5039619;28;20043;-86
2022/12/01 00:54:21;;;;;;;21.70;13.05;;;;;;;;;;5049701;28;20119;-86
2022/12/01 00:56:47;;;;;;;22.58;13.27;;;;;;;;;;5050260;28;20030;-87
2022/12/01 00:59:12;;;;;;;22.00;12.90;;;;;;;;;;5052529;28;20037;-87
2022/12/01 01:01:37;;;;;;;20.15;12.52;;;;;;;;;;5053416;28;20773;-86
2022/12/01 01:04:03;;;;;;;22.15;13.45;;;;;;;;;;5052837;28;20029;-87
2022/12/01 01:06:28;;;;;;;23.40;14.18;;;;;;;;;;5051884;28;20067;-86
2022/12/01 01:08:54;;;;;;;21.35;13.05;;;;;;;;;;5052646;28;20508;-87
2022/12/01 01:11:19;;;;;;;;;;;;;;;;;;5053371;28;20051;-88
2022/12/01 01:13:44;;;;;;;23.52;14.38;;;;;;;;;;5052341;28;19917;-86
2022/12/01 01:16:13;;;;;;;18.88;13.68;;;;;;;;;;5052009;28;20881;-86
2022/12/01 01:18:39;;;;;;;21.73;13.48;;;;;;;;;;5052197;28;20124;-87
2022/12/01 01:21:06;;;;;;;25.40;15.03;;;;;;;;;;5053948;28;20083;-87
2022/12/01 01:23:31;;;;;;;22.38;13.60;;;;;;;;;;5053179;28;20033;-86
2022/12/01 01:26:00;;;;;;;20.50;12.90;;;;;;;;;;5053906;28;20059;-87
2022/12/01 01:28:25;;;;;;;18.77;11.85;;;;;;;;;;5051923;28;20033;-86
2022/12/01 01:30:51;;;;;;;19.70;11.67;;;;;;;;;;5053256;28;20036;-87
2022/12/01 01:33:16;;;;;;;23.13;13.97;;;;;;;;;;5053702;28;20128;-87
2022/12/01 01:35:41;;;;;;;20.63;13.20;;;;;;;;;;5058918;28;20052;-90
2022/12/01 01:38:06;;;;;;;21.60;12.80;;;;;;;;;;5067058;28;20535;-90
2022/12/01 01:40:31;;;;;;;24.10;13.83;;;;;;;;;;5065840;28;20033;-87
2022/12/01 01:42:57;;;;;;;22.88;13.88;;;;;;;;;;5067885;28;20049;-90
2022/12/01 01:45:23;;;;;;;17.87;10.67;;;;;;;;;;5070125;28;20041;-90
2022/12/01 01:47:50;;;;;;;24.13;14.57;;;;;;;;;;5059355;28;20037;-87
2022/12/01 01:50:17;;;;;;;21.23;13.82;;;;;;;;;;5047967;28;20043;-88
2022/12/01 01:52:44;;;;;;;22.08;13.45;;;;;;;;;;5034481;28;20562;-87
2022/12/01 01:55:11;;;;;;;24.23;15.05;;;;;;;;;;5047703;28;20119;-87
2022/12/01 01:57:36;;;;;;;24.17;14.35;;;;;;;;;;5053085;28;20369;-86
2022/12/01 02:00:06;;;;;;;23.23;14.18;;;;;;;;;;5050498;28;20094;-86
2022/12/01 02:02:32;;;;;;;22.45;12.88;;;;;;;;;;5051566;28;20057;-87
2022/12/01 02:04:59;;;;;;;22.67;14.23;;;;;;;;;;5052694;28;20059;-87
2022/12/01 02:07:24;;;;;;;21.77;15.52;;;;;;;;;;5051104;28;20500;-87
2022/12/01 02:09:50;;;;;;;23.83;15.07;;;;;;;;;;5051697;28;20056;-87
2022/12/01 02:12:18;;;;;;;21.67;13.95;;;;;;;;;;5052505;28;20043;-87
2022/12/01 02:15:02;;;;;;;23.77;15.30;;;;;;;;;;5052017;28;20511;-86
2022/12/01 02:17:27;;;;;;;24.77;14.50;;;;;;;;;;5051316;28;20032;-86
2022/12/01 02:19:59;;;;;;;24.67;15.60;;;;;;;;;;5050511;28;20120;-86
2022/12/01 02:22:27;;;;;;;20.25;14.30;;;;;;;;;;5049121;28;20402;-86
2022/12/01 02:24:52;;;;;;;23.40;14.95;;;;;;;;;;5051608;28;20041;-86
2022/12/01 02:27:24;;;;;;;24.83;14.68;;;;;;;;;;5050743;28;20044;-88
2022/12/01 02:30:08;;;;;;;25.25;15.15;;;;;;;;;;5043419;28;20037;-86
2022/12/01 02:32:48;;;;;;;23.95;15.15;;;;;;;;;;5035110;28;20554;-87
2022/12/01 02:35:18;;;;;;;23.67;14.65;;;;;;;;;;5040809;28;20061;-86
2022/12/01 02:38:08;;;;;;;26.07;15.60;;;;;;;;;;5041843;28;20120;-86
2022/12/01 02:40:45;;;;;;;25.67;14.82;;;;;;;;;;5045939;28;20029;-88
2022/12/01 02:43:18;;;;;;;23.63;14.38;;;;;;;;;;5035183;28;20853;-86
2022/12/01 02:45:47;;;;;;;25.42;15.00;;;;;;;;;;5051225;28;20566;-87
2022/12/01 02:48:19;;;;;;;24.48;14.68;;;;;;;;;;5038281;28;20046;-87
2022/12/01 02:50:45;;;;;;;24.80;14.15;;;;;;;;;;5041940;28;20037;-87
2022/12/01 02:53:11;;;;;;;22.20;13.48;;;;;;;;;;5046671;28;20041;-86
2022/12/01 02:55:44;;;;;;;24.25;14.15;;;;;;;;;;5049132;28;20441;-86
2022/12/01 02:58:09;;;;;;;;;;;;;;;;;;5050651;28;20071;-87
2022/12/01 03:00:35;;;;;;;25.35;13.75;;;;;;;;;;5050173;28;19917;-86
2022/12/01 03:03:21;;;;;;;24.30;14.20;;;;;;;;;;5048526;28;20057;-86
2022/12/01 03:05:57;;;;;;;24.50;14.30;;;;;;;;;;5045343;28;20037;-86
2022/12/01 03:08:30;;;;;;;25.80;14.73;;;;;;;;;;5040743;28;20069;-87
2022/12/01 03:10:57;;;;;;;23.05;13.82;;;;;;;;;;5046458;28;20045;-87
2022/12/01 03:13:31;;;;;;;24.25;14.10;;;;;;;4.70;nan;101067.09;5044310;28;20624;-87
2022/12/01 03:16:08;;;;;;;23.85;14.00;;;;;;;;;;5040529;28;20029;-87
2022/12/01 03:18:40;;;;;;;26.13;14.77;;;;;;;;;;5040679;28;20522;-87
2022/12/01 03:21:12;;;;;;;22.52;13.13;;;;;;;;;;5051560;28;20041;-87
2022/12/01 03:23:39;;;;;;;23.17;13.88;;;;;;;;;;5048110;28;20103;-87
2022/12/01 03:26:06;;;;;;;22.75;14.30;;;;;;;;;;5047595;28;20056;-86
2022/12/01 03:28:37;;;;;;;20.77;12.77;;;;;;;;;;5048483;28;20036;-86
2022/12/01 03:31:05;;;;;;;22.08;13.38;;;;;;;;;;5046262;28;20055;-88
2022/12/01 03:33:36;;;;;;;23.15;13.43;;;;;;;;;;5041390;28;20050;-86
2022/12/01 03:36:06;;;;;;;24.08;14.15;;;;;;;;;;5046721;28;20041;-88
2022/12/01 03:38:35;;;;;;;23.73;14.00;;;;;;;;;;5047048;28;20033;-86
2022/12/01 03:41:02;;;;;;;22.35;13.50;;;;;;;;;;5049641;28;20522;-86
2022/12/01 03:43:30;;;;;;;22.65;13.75;;;;;;;;;;5041801;28;20103;-86
2022/12/01 03:46:00;;;;;;;22.20;13.82;;;;;;;;;;5049567;28;20091;-86
2022/12/01 03:48:25;;;;;;;23.10;13.65;;;;;;;;;;5049738;28;20037;-86
2022/12/01 03:51:00;;;;;;;22.90;12.63;;;;;;;;;;5050266;28;20606;-87
2022/12/01 03:53:27;;;;;;;23.52;13.43;;;;;;;;;;5050670;28;20141;-86
2022/12/01 03:55:56;;;;;;;21.75;13.05;;;;;;;;;;5046169;28;20052;-86
2022/12/01 03:58:24;;;;;;;19.90;11.90;;;;;;;;;;5047195;28;20037;-87
2022/12/01 04:00:54;;;;;;;21.42;12.73;;;;;;;;;;5045380;28;20086;-87
2022/12/01 04:03:22;;;;;;;20.70;12.27;;;;;;;;;;5033699;28;20515;-86
2022/12/01 04:05:47;;;;;;;23.35;12.93;;;;;;;;;;5042651;28;20045;-86
2022/12/01 04:08:12;;;;;;;20.20;12.55;;;;;;;;;;5051405;28;20064;-86
2022/12/01 04:10:38;;;;;;;21.55;12.63;;;;;;;;;;5051205;28;20041;-86
2022/12/01 04:13:03;;;;;;;19.47;12.00;;;;;;;;;;5037498;28;20504;-86
2022/12/01 04:15:28;;;;;;;19.67;11.70;;;;;;;;;;5049794;28;20493;-86
2022/12/01 04:17:53;;;;;;;21.57;12.53;;;;;;;;;;5049995;28;20048;-86
2022/12/01 04:20:18;;;;;;;20.20;11.30;;;;;;;;;;5051049;28;20041;-86
2022/12/01 04:22:44;;;;;;;19.65;12.35;;;;;;;;;;5052416;28;20048;-86
2022/12/01 04:25:09;;;;;;;18.70;11.40;;;;;;;;;;5048152;28;20033;-86
2022/12/01 04:27:34;;;;;;;19.48;11.73;;;;;;;;;;5042114;28;20360;-86
2022/12/01 04:30:00;;;;;;;19.30;12.27;;;;;;;;;;5043988;28;20041;-86
2022/12/01 04:32:25;;;;;;;20.90;12.47;;;;;;;;;;5047728;28;20278;-87
2022/12/01 04:34:50;;;;;;;19.43;12.13;;;;;;;;;;5043690;28;20555;-86
2022/12/01 04:37:15;;;;;;;19.97;12.07;;;;;;;;;;5044250;28;20594;-86
2022/12/01 04:39:41;;;;;;;17.58;11.32;;;;;;;;;;5041620;28;20311;-87
2022/12/01 04:42:06;;;;;;;19.08;12.05;;;;;;;;;;5049554;28;20031;-86
2022/12/01 04:44:32;;;;;;;20.48;12.23;;;;;;;;;;5048603;28;20159;-87
2022/12/01 04:46:57;;;;;;;20.30;12.23;;;;;;;;;;5049134;28;20041;-86
2022/12/01 04:49:22;;;;;;;20.67;11.70;;;;;;;;;;5043531;28;20424;-86
2022/12/01 04:51:47;;;;;;;20.47;11.83;;;;;;;;;;5049833;28;20068;-86
2022/12/01 04:54:13;;;;;;;20.38;12.30;;;;;;;;;;5047269;28;20279;-87
2022/12/01 04:56:38;;;;;;;18.17;11.00;;;;;;;;;;5042378;28;20038;-86
2022/12/01 04:59:03;;;;;;;18.58;11.23;;;;;;;;;;5048045;28;20072;-87
2022/12/01 05:01:29;;;;;;;18.85;11.57;;;;;;;;;;5048681;28;20261;-86
2022/12/01 05:03:54;;;;;;;18.23;11.00;;;;;;;;;;5051777;28;20096;-86
2022/12/01 05:06:21;;;;;;;21.85;13.30;;;;;;;;;;5051718;28;20131;-86
2022/12/01 05:08:46;;;;;;;20.85;12.68;;;;;;;;;;5043505;28;20033;-86
2022/12/01 05:11:12;;;;;;;21.92;13.50;;;;;;;;;;5054582;28;20041;-86
2022/12/01 05:13:41;;;;;;;21.88;12.63;;;;;;;;;;5054005;28;20078;-86
2022/12/01 05:16:08;;;;;;;21.95;13.07;;;;;;;;;;5053881;28;20037;-86
2022/12/01 05:18:33;;;;;;;23.15;14.10;;;;;;;;;;5054947;28;20033;-86
2022/12/01 05:20:59;;;;;;;21.08;12.82;;;;;;;;;;5053330;28;20035;-86
2022/12/01 05:23:28;;;;;;;21.13;13.10;;;;;;;;;;5052877;28;20044;-86
2022/12/01 05:25:53;;;;;;;20.90;12.15;;;;;;;;;;5051526;28;20319;-86
2022/12/01 05:28:19;;;;;;;22.00;12.63;;;;;;;;;;5049939;28;20222;-87
2022/12/01 05:30:45;;;;;;;22.23;11.82;;;;;;;;;;5056867;28;20083;-87
2022/12/01 05:33:10;;;;;;;20.98;12.45;;;;;;;;;;5052792;28;20699;-87
2022/12/01 05:35:36;;;;;;;20.55;12.30;;;;;;;;;;5050107;28;20512;-86
2022/12/01 05:38:01;;;;;;;19.73;11.40;;;;;;;;;;5049052;28;20390;-87
2022/12/01 05:40:26;;;;;;;18.17;11.70;;;;;;;;;;5047838;28;20064;-87
2022/12/01 05:42:51;;;;;;;20.43;12.30;;;;;;;;;;5042973;28;20045;-87
2022/12/01 05:45:16;;;;;;;21.35;12.68;;;;;;;;;;5041178;28;20073;-87
2022/12/01 05:47:42;;;;;;;19.20;12.00;;;;;;;;;;5046542;28;20196;-87
2022/12/01 05:50:07;;;;;;;19.00;11.47;;;;;;;;;;5047707;28;20052;-87
2022/12/01 05:52:36;;;;;;;18.40;11.18;;;;;;;;;;5050726;28;20272;-86
2022/12/01 05:55:02;;;;;;;20.48;12.40;;;;;;;;;;5046085;28;20378;-87
2022/12/01 05:57:27;;;;;;;18.30;11.50;;;;;;;;;;5044335;28;20037;-88
2022/12/01 05:59:53;;;;;;;19.23;11.67;;;;;;;;;;5050483;28;20519;-89
2022/12/01 06:02:18;;;;;;;19.80;12.15;;;;;;;;;;5038369;28;20682;-87
2022/12/01 06:04:43;;;;;;;22.10;12.85;;;;;;;;;;5033801;28;20091;-87
2022/12/01 06:07:08;;;;;;;20.50;11.88;;;;;;;;;;5044068;28;20045;-87
2022/12/01 06:09:34;;;;;;;21.52;12.98;;;;;;;;;;5049191;28;20036;-87
2022/12/01 06:11:59;;;;;;;20.23;12.90;;;;;;;;;;5049612;28;20523;-88
2022/12/01 06:14:24;;;;;;;22.17;12.60;;;;;;;;;;5046927;28;23391;-88
2022/12/01 06:16:49;;;;;;;18.63;12.27;;;;;;;;;;5049601;28;20039;-88
2022/12/01 06:19:14;;;;;;;18.67;11.93;;;;;;;;;;5066547;28;20021;-91
2022/12/01 06:21:40;;;;;;;19.07;12.07;;;;;;;;;;5052583;28;20068;-87
2022/12/01 06:24:05;;;;;;;20.43;12.13;;;;;;;;;;5048614;28;20065;-86
2022/12/01 06:26:30;;;;;;;19.27;11.82;;;;;;;;;;5044964;28;20613;-86
2022/12/01 06:28:58;;;;;;;21.97;13.10;;;;;;;;;;5035165;28;20065;-86
2022/12/01 06:31:23;;;;;;;20.60;12.63;;;;;;;;;;5049461;28;20678;-87
2022/12/01 06:33:48;;;;;;;20.33;12.07;;;;;;;;;;5050542;28;21767;-87
2022/12/01 06:36:14;;;;;;;18.77;11.70;;;;;;;;;;5045735;28;20287;-86
2022/12/01 06:38:39;;;;;;;22.23;13.17;;;;;;;;;;5049882;28;20044;-86
2022/12/01 06:41:04;;;;;;;20.38;12.27;;;;;;;;;;5050014;28;20188;-88
2022/12/01 06:43:30;;;;;;;20.77;13.00;;;;;;;;;;5049331;28;20404;-87
2022/12/01 06:45:55;;;;;;;23.90;14.32;;;;;;;;;;5049222;28;20276;-86
2022/12/01 06:48:21;;;;;;;22.02;13.63;;;;;;;;;;5049373;28;20045;-86
2022/12/01 06:50:46;;;;;;;22.33;13.77;;;;;;;;;;5048760;28;20111;-88
2022/12/01 06:53:11;;;;;;;20.52;12.10;;;;;;;;;;5048874;28;20041;-88
2022/12/01 06:55:36;;;;;;;20.80;12.50;;;;;;;;;;5035709;28;20171;-85
2022/12/01 06:58:02;;;;;;;22.35;13.70;;;;;;;;;;5051446;28;20323;-86
2022/12/01 07:00:27;;;;;;;21.88;13.00;;;;;;;;;;5048232;28;20530;-87
2022/12/01 07:02:53;;;;;;;20.55;12.68;;;;;;;;;;5034436;28;20030;-86
2022/12/01 07:05:18;;;;;;;19.13;12.00;;;;;;;;;;5032792;28;20042;-85
2022/12/01 07:07:43;;;;;;;17.67;11.03;;;;;;;;;;5051349;28;20041;-86
2022/12/01 07:10:09;;;;;;;19.93;12.07;;;;;;;;;;5051228;28;20471;-87
2022/12/01 07:12:34;;;;;;;16.33;10.85;;;;;;;;;;5052548;28;20276;-86
2022/12/01 07:15:00;;;;;;;20.07;12.23;;;;;;;;;;5051482;28;20048;-86
2022/12/01 07:17:26;;;;;;;21.00;12.95;;;;;;;;;;5052656;28;20285;-87
2022/12/01 07:19:51;;;;;;;19.50;12.40;;;;;;;;;;5051412;28;20132;-87
2022/12/01 07:22:16;;;;;;;21.73;13.17;;;;;;;;;;5051688;28;20075;-86
2022/12/01 07:24:41;;;;;;;20.00;12.13;;;;;;;;;;5050882;28;20272;-85
2022/12/01 07:27:06;;;;;;;24.17;14.17;;;;;;;;;;5052232;28;20343;-85
2022/12/01 07:29:32;;;;;;;29.43;15.77;;;;;;;;;;5051756;28;20036;-85
2022/12/01 07:31:57;;;;;;;27.00;14.35;;;;;;;;;;5052657;28;20365;-86
2022/12/01 07:34:22;;;;;;;21.27;12.70;;;;;;;;;;5053874;28;20039;-87
2022/12/01 07:36:47;;;;;;;21.02;12.57;;;;;;;;;;5054235;28;20508;-86
2022/12/01 07:39:12;;;;;;;21.77;13.30;;;;;;;;;;5054323;28;20124;-88
2022/12/01 07:41:38;;;;;;;23.03;13.83;;;;;;;;;;5052617;28;20032;-86
2022/12/01 07:44:03;;;;;;;21.77;13.60;;;;;;;;;;5051614;28;20033;-87
2022/12/01 07:46:28;;;;;;;21.73;13.18;;;;;;;;;;5051137;28;20358;-85
2022/12/01 07:48:54;;;;;;;21.75;12.90;;;;;;;;;;5052820;28;20353;-86
2022/12/01 07:51:20;;;;;;;24.95;13.75;;;;;;;;;;5050961;28;20041;-87
2022/12/01 07:53:46;;;;;;;20.65;12.07;;;;;;;;;;5052335;28;20040;-85
2022/12/01 07:56:12;;;;;;;22.40;13.90;;;;;;;;;;5050471;28;20083;-86
2022/12/01 07:58:37;;;;;;;21.70;12.53;;;;;;;;;;5052350;28;20029;-85
2022/12/01 08:01:11;;;;;;;19.20;12.00;;;;;;;;;;5050636;28;20337;-85
2022/12/01 08:03:36;;;;;;;20.95;12.38;;;;;;;;;;5052360;28;20288;-85
2022/12/01 08:06:02;;;;;;;18.73;11.45;;;;;;;;;;5053877;28;20037;-87
2022/12/01 08:08:28;;;;;;;19.42;12.43;;;;;;;;;;5050291;28;20116;-85
2022/12/01 08:10:57;;;;;;;20.70;13.02;;;;;;;;;;5050728;28;20036;-85
2022/12/01 08:13:23;;;;;;;19.10;12.20;;;;;;;;;;5051593;28;20040;-86
2022/12/01 08:15:48;;;;;;;17.60;11.23;;;;;;;;;;5050907;28;20045;-86
2022/12/01 08:18:14;;;;;;;22.13;12.33;;;;;;;;;;5049741;28;20171;-88
2022/12/01 08:20:39;;;;;;;16.70;10.88;;;;;;;4.06;nan;100883.66;5050398;28;20318;-86
2022/12/01 08:23:04;;;;;;;17.45;11.60;;;;;;;;;;5050107;28;20041;-87
2022/12/01 08:25:29;;;;;;;18.17;11.23;;;;;;;;;;5051075;28;20124;-85
2022/12/01 08:27:55;;;;;;;20.13;11.97;;;;;;;;;;5049858;28;20849;-85
2022/12/01 08:30:21;;;;;;;18.48;11.40;;;;;;;;;;5049273;28;20367;-88
2022/12/01 08:32:46;;;;;;;17.45;10.70;;;;;;;;;;5044265;28;20428;-85
2022/12/01 08:35:11;;;;;;;17.70;11.00;;;;;;;;;;5049799;28;20040;-85
2022/12/01 08:37:36;;;;;;;18.23;11.93;;;;;;;;;;5053009;28;20028;-87
2022/12/01 08:40:02;;;;;;;19.40;11.67;;;;;;;;;;5054364;28;20099;-85
2022/12/01 08:42:27;;;;;;;24.20;14.50;;;;;;;;;;5055466;28;20044;-86
2022/12/01 08:44:52;;;;;;;20.47;12.20;;;;;;;;;;5056926;28;20041;-86
2022/12/01 08:47:17;;;;;;;19.30;12.47;;;;;;;;;;5053423;28;20040;-85
2022/12/01 08:49:43;;;;;;;19.03;12.10;;;;;;;;;;5053361;28;20033;-86
2022/12/01 08:52:08;;;;;;;20.83;12.10;;;;;;;;;;5052398;28;20758;-86
2022/12/01 08:54:33;;;;;;;20.03;11.73;;;;;;;;;;5054981;28;20037;-86
2022/12/01 08:56:58;;;;;;;18.25;11.77;;;;;;;;;;5053628;28;20033;-86
2022/12/01 08:59:24;;;;;;;17.53;11.17;;;;;;;;;;5054452;28;20438;-87
2022/12/01 09:01:52;;;;;;;20.23;11.43;;;;;;;;;;5052829;28;20742;-85
2022/12/01 09:04:18;;;;;;;17.60;11.35;;;;;;;;;;5054635;28;20318;-86
2022/12/01 09:06:44;;;;;;;19.08;11.60;;;;;;;;;;5053873;28;20068;-86
2022/12/01 09:09:11;;;;;;;19.08;11.40;;;;;;;;;;5053196;28;20124;-85
2022/12/01 09:11:37;;;;;;;20.05;12.90;;;;;;;;;;5053177;28;20047;-87
2022/12/01 09:14:02;;;;;;;18.52;11.98;;;;;;;;;;5053962;28;20115;-87
2022/12/01 09:16:27;;;;;;;17.20;11.33;;;;;;;;;;5053908;28;20125;-86
2022/12/01 09:18:53;;;;;;;18.20;11.63;;;;;;;;;;5054501;28;20279;-88
2022/12/01 09:21:19;;;;;;;18.30;11.73;;;;;;;;;;5053912;28;20279;-87
2022/12/01 09:23:45;;;;;;;17.67;11.45;;;;;;;;;;5053078;28;20037;-86
2022/12/01 09:26:11;;;;;;;22.20;13.65;;;;;;;;;;5051877;28;20403;-87
2022/12/01 09:28:36;;;;;;;20.52;13.20;;;;;;;;;;5052768;28;20053;-87
2022/12/01 09:31:03;;;;;;;20.08;12.43;;;;;;;;;;5054473;28;20037;-86
2022/12/01 09:33:28;;;;;;;20.30;12.40;;;;;;;;;;5052369;28;20104;-86
2022/12/01 09:35:56;;;;;;;22.17;13.75;;;;;;;;;;5052366;28;20069;-87
2022/12/01 09:38:21;;;;;;;19.73;12.40;;;;;;;;;;5052251;28;20102;-85
2022/12/01 09:40:46;;;;;;;20.97;12.97;;;;;;;;;;5054498;28;20063;-86
2022/12/01 09:43:15;;;;;;;21.90;12.63;;;;;;;;;;5053106;28;20616;-86
2022/12/01 09:45:43;;;;;;;27.48;15.10;;;;;;;;;;5054793;28;20093;-85
2022/12/01 09:48:12;;;;;;;24.95;13.95;;;;;;;;;;5053377;28;20404;-86
2022/12/01 09:50:37;;;;;;;21.20;12.75;;;;;;;;;;5052698;28;20041;-87
2022/12/01 09:53:06;;;;;;;26.73;14.70;;;;;;;;;;5052028;28;20524;-85
2022/12/01 09:55:32;;;;;;;29.58;15.68;;;;;;;;;;5052037;28;20287;-87
2022/12/01 09:57:58;;;;;;;28.35;15.90;;;;;;;;;;5052057;28;20037;-86
2022/12/01 10:00:34;;;;;;;24.08;13.55;;;;;;;;;;5052412;28;20052;-86
2022/12/01 10:03:00;;;;;;;21.23;13.07;;;;;;;;;;5051964;28;20033;-84
2022/12/01 10:05:27;;;;;;;21.23;13.53;;;;;;;;;;5053629;28;20029;-86
2022/12/01 10:08:00;;;;;;;22.50;13.27;;;;;;;;;;5051654;28;20280;-86
2022/12/01 10:10:29;;;;;;;20.35;12.70;;;;;;;;;;5052467;28;20033;-86
2022/12/01 10:12:55;;;;;;;21.88;13.57;;;;;;;;;;5053040;28;20056;-86
2022/12/01 10:15:20;;;;;;;20.25;12.35;;;;;;;;;;5052388;28;20048;-87
2022/12/01 10:17:45;;;;;;;19.47;12.20;;;;;;;;;;5049401;28;20128;-87
2022/12/01 10:20:30;;;;;;;19.47;12.40;;;;;;;;;;5049312;28;20118;-87
2022/12/01 10:23:03;;;;;;;19.75;12.50;;;;;;;;;;5049385;28;20291;-87
2022/12/01 10:25:48;;;;;;;20.23;11.70;;;;;;;;;;5050305;28;20124;-87
2022/12/01 10:28:13;;;;;;;19.88;12.38;;;;;;;;;;5049728;28;20029;-87
2022/12/01 10:30:45;;;;;;;20.17;12.60;;;;;;;;;;5051218;28;20052;-87
2022/12/01 10:33:33;;;;;;;18.02;12.15;;;;;;;;;;5051147;28;20036;-86
2022/12/01 10:35:58;;;;;;;20.63;13.18;;;;;;;;;;5051464;28;20385;-87
2022/12/01 10:38:29;;;;;;;25.33;15.48;;;;;;;;;;5048058;28;20064;-86
2022/12/01 10:40:58;;;;;;;17.80;11.77;;;;;;;;;;5052453;28;20116;-87
2022/12/01 10:43:28;;;;;;;18.45;11.70;;;;;;;;;;5050296;28;20090;-87
2022/12/01 10:45:54;;;;;;;19.45;11.93;;;;;;;;;;5051394;28;20036;-87
2022/12/01 10:48:20;;;;;;;19.38;11.80;;;;;;;;;;5051544;28;20033;-87
2022/12/01 10:50:56;;;;;;;20.30;12.02;;;;;;;;;;5052887;28;20087;-87
2022/12/01 10:53:21;;;;;;;19.25;11.90;;;;;;;;;;5064466;28;20037;-87
2022/12/01 10:55:48;;;;;;;17.27;11.40;;;;;;;;;;5057343;28;20051;-86
2022/12/01 10:58:14;;;;;;;18.70;11.65;;;;;;;;;;5054234;28;20087;-86
2022/12/01 11:00:40;;;;;;;18.67;11.90;;;;;;;;;;5051494;28;20033;-86
2022/12/01 11:03:16;;;;;;;17.83;10.93;;;;;;;;;;5052657;28;20039;-87
2022/12/01 11:05:41;;;;;;;19.17;11.57;;;;;;;;;;5051886;28;20598;-87
2022/12/01 11:08:19;;;;;;;19.58;11.80;;;;;;;;;;5054307;28;20063;-86
2022/12/01 11:10:46;;;;;;;20.02;11.93;;;;;;;;;;5052111;28;20109;-86
2022/12/01 11:13:11;;;;;;;20.10;13.07;;;;;;;;;;5048989;28;20033;-87
2022/12/01 11:15:38;;;;;;;18.87;11.80;;;;;;;;;;5049151;28;20040;-87
2022/12/01 11:18:05;;;;;;;18.95;12.15;;;;;;;;;;5051538;28;20037;-87
2022/12/01 11:20:32;;;;;;;18.05;11.45;;;;;;;;;;5049947;28;20033;-86
2022/12/01 11:23:16;;;;;;;20.15;12.57;;;;;;;;;;5050301;28;20033;-87
2022/12/01 11:25:54;;;;;;;20.13;12.52;;;;;;;;;;5050524;28;20040;-87
2022/12/01 11:28:19;;;;;;;19.67;12.13;;;;;;;;;;5050404;28;20045;-87
2022/12/01 11:30:45;;;;;;;18.70;11.32;;;;;;;;;;5050697;28;20090;-87
2022/12/01 11:33:13;;;;;;;17.33;10.90;;;;;;;;;;5051865;28;20112;-87
2022/12/01 11:35:45;;;;;;;20.55;12.20;;;;;;;;;;5050108;28;20306;-87
2022/12/01 11:38:18;;;;;;;17.90;11.25;;;;;;;;;;5050057;28;20416;-88
2022/12/01 11:40:50;;;;;;;18.67;11.57;;;;;;;5.51;nan;101148.19;5049628;28;20179;-87
2022/12/01 11:43:36;;;;;;;17.38;11.02;;;;;;;;;;5048302;28;20037;-86
2022/12/01 11:46:03;;;;;;;18.77;12.23;;;;;;;;;;5048479;28;20530;-87
2022/12/01 11:48:29;;;;;;;18.25;11.07;;;;;;;;;;5048466;28;20424;-87
2022/12/01 11:51:06;;;;;;;21.02;12.57;;;;;;;;;;5048811;28;20036;-88
2022/12/01 11:53:34;;;;;;;18.20;11.90;;;;;;;;;;5055208;28;20013;-85
2022/12/01 11:56:11;;;;;;;18.42;11.32;;;;;;;;;;5050476;28;20040;-87
2022/12/01 11:58:37;;;;;;;19.10;12.38;;;;;;;;;;5049183;28;20549;-88
2022/12/01 12:01:03;;;;;;;17.92;11.95;;;;;;;;;;5048144;28;20045;-87
2022/12/01 12:03:32;;;;;;;19.27;12.02;;;;;;;;;;5048256;28;20378;-87
2022/12/01 12:06:24;;;;;;;19.15;11.15;;;;;;;;;;5050053;28;20052;-88
2022/12/01 12:09:07;;;;;;;18.75;11.57;;;;;;;;;;5047694;28;20029;-87
2022/12/01 12:11:46;;;;;;;19.33;11.15;;;;;;;;;;5052657;28;20031;-87
2022/12/01 12:14:20;;;;;;;18.67;11.30;;;;;;;;;;5055219;28;20033;-87
2022/12/01 12:17:04;;;;;;;17.98;10.80;;;;;;;;;;5056929;28;20133;-87
2022/12/01 12:19:54;;;;;;;19.45;12.02;;;;;;;;;;5055270;28;20033;-87
2022/12/01 12:22:35;;;;;;;19.55;11.95;;;;;;;;;;5054632;28;20047;-87
2022/12/01 12:25:01;;;;;;;;;;;;;;;;;;5051793;28;20041;-87
2022/12/01 12:27:29;;;;;;;17.77;10.95;;;;;;;;;;5051737;28;19978;-87
2022/12/01 12:30:00;;;;;;;18.20;10.32;;;;;;;;;;5051685;28;20542;-87
2022/12/01 12:32:25;;;;;;;18.80;11.25;;;;;;;;;;5051410;28;20103;-87
2022/12/01 12:35:09;;;;;;;17.57;10.97;;;;;;;;;;5052364;28;20037;-88
2022/12/01 12:37:45;;;;;;;16.63;10.48;;;;;;;;;;5051219;28;20271;-87
2022/12/01 12:40:10;;;;;;;17.55;11.10;;;;;;;;;;5051416;28;20033;-88
2022/12/01 12:42:38;;;;;;;17.13;10.87;;;;;;;;;;5052811;28;20664;-86
2022/12/01 12:45:21;;;;;;;15.85;9.85;;;;;;;;;;5052138;28;20056;-88
2022/12/01 12:48:09;;;;;;;15.60;10.13;;;;;;;;;;5052323;28;20032;-87
2022/12/01 12:50:52;;;;;;;16.58;10.15;;;;;;;;;;5032854;28;20037;-89
2022/12/01 12:53:19;;;;;;;15.73;10.25;;;;;;;;;;5033900;28;20044;-87
2022/12/01 12:55:47;;;;;;;18.88;11.63;;;;;;;;;;5050932;28;20114;-87
2022/12/01 12:58:21;;;;;;;17.85;10.80;;;;;;;;;;5051558;28;20141;-88
2022/12/01 13:00:56;;;;;;;16.17;9.85;;;;;;;;;;5052207;28;20033;-87
2022/12/01 13:03:30;;;;;;;17.98;10.68;;;;;;;;;;5052914;28;20047;-85
2022/12/01 13:06:28;;;;;;;16.85;11.38;;;;;;;;;;5048871;28;20041;-85
2022/12/01 13:08:57;;;;;;;19.48;11.95;;;;;;;;;;5007357;28;20045;-87
2022/12/01 13:11:23;;;;;;;18.92;11.27;;;;;;;;;;5051162;28;20565;-86
2022/12/01 13:13:56;;;;;;;18.67;11.07;;;;;;;;;;5051741;28;20067;-88
2022/12/01 13:16:24;;;;;;;17.55;11.65;;;;;;;;;;5048595;28;20391;-88
2022/12/01 13:18:55;;;;;;;19.52;11.60;;;;;;;;;;5051302;28;20548;-87
2022/12/01 13:21:21;;;;;;;19.45;11.32;;;;;;;;;;5051668;28;20040;-87
2022/12/01 13:23:46;;;;;;;18.10;11.90;;;;;;;;;;5051303;28;20057;-86
2022/12/01 13:26:12;;;;;;;18.38;11.45;;;;;;;;;;5050650;28;20087;-87
2022/12/01 13:28:41;;;;;;;21.38;12.57;;;;;;;;;;5049709;28;20041;-87
2022/12/01 13:31:07;;;;;;;19.50;11.50;;;;;;;;;;5050272;28;20128;-87
2022/12/01 13:33:34;;;;;;;17.55;10.88;;;;;;;;;;5051893;28;20033;-87
2022/12/01 13:36:00;;;;;;;17.83;10.85;;;;;;;;;;5059661;28;20083;-86
2022/12/01 13:38:32;;;;;;;19.08;11.63;;;;;;;;;;5059291;28;20037;-86
2022/12/01 13:41:16;;;;;;;18.45;10.98;;;;;;;;;;5039971;28;20040;-86
2022/12/01 13:44:05;;;;;;;18.10;10.93;;;;;;;;;;5055572;28;20041;-86
2022/12/01 13:46:42;;;;;;;18.75;11.23;;;;;;;;;;5043252;28;20056;-86
2022/12/01 13:49:27;;;;;;;17.95;11.45;;;;;;;;;;5054993;28;20037;-86
2022/12/01 13:52:11;;;;;;;17.15;10.38;;;;;;;;;;5050609;28;20444;-86
2022/12/01 13:54:37;;;;;;;17.65;10.80;;;;;;;;;;5028848;28;20037;-87
2022/12/01 13:57:04;;;;;;;18.13;10.73;;;;;;;;;;5028778;28;20033;-87
2022/12/01 13:59:40;;;;;;;17.52;10.57;;;;;;;;;;5049494;28;20064;-87
2022/12/01 14:02:17;;;;;;;18.48;10.90;;;;;;;;;;5030441;28;20053;-87
2022/12/01 14:04:42;;;;;;;18.20;11.07;;;;;;;;;;5028903;28;20132;-87
2022/12/01 14:07:29;;;;;;;16.47;10.33;;;;;;;;;;5035934;28;20063;-87
2022/12/01 14:09:56;;;;;;;16.25;10.02;;;;;;;;;;5048227;28;20276;-86
2022/12/01 14:12:33;;;;;;;17.88;10.68;;;;;;;;;;5047500;28;20036;-87
2022/12/01 14:15:00;;;;;;;17.13;10.40;;;;;;;;;;5049163;28;20470;-88
2022/12/01 14:17:27;;;;;;;22.02;13.27;;;;;;;;;;5035329;28;20044;-87
2022/12/01 14:19:52;;;;;;;23.20;13.93;;;;;;;;;;5037342;28;20037;-86
2022/12/01 14:22:32;;;;;;;17.45;11.02;;;;;;;;;;5047856;28;20564;-87